SWA2447 KPSP-KLAS
Flight info
| Callsign | SWA2447 |
|---|---|
| Flight time | 0h 41m |
| Altitude | 35000 |
| Route | HWRRD1 FUSBL TNP RNDRZ4 |
| Aircraft | B737/M-SDE2E3FGHIRWXY/LB1 |
Departure
| Time | 2026-05-06 03:45 |
|---|---|
| Airport | Palm Springs International Airport (KPSP) |
Arrival
| Time | 2026-05-06 04:27 |
|---|---|
| Airport | Harry Reid International Airport (KLAS) |
| Time | Latitude | Longitude | Altitude | Speed | Heading |
|---|---|---|---|---|---|
| 2026-05-06 03:07 | 33.82312 | -116.50578 | 423 ft | 0 kts | 276° |
| 2026-05-06 03:22 | 33.82311 | -116.50565 | 423 ft | 2 kts | 270° |
| 2026-05-06 03:23 | 33.82312 | -116.50544 | 420 ft | 2 kts | 258° |
| 2026-05-06 03:23 | 33.82316 | -116.50529 | 420 ft | 2 kts | 238° |
| 2026-05-06 03:23 | 33.82322 | -116.50520 | 414 ft | 1 kts | 216° |
| 2026-05-06 03:23 | 33.82329 | -116.50515 | 414 ft | 1 kts | 193° |
| 2026-05-06 03:24 | 33.82340 | -116.50513 | 416 ft | 2 kts | 172° |
| 2026-05-06 03:24 | 33.82351 | -116.50516 | 419 ft | 2 kts | 160° |
| 2026-05-06 03:24 | 33.82360 | -116.50521 | 417 ft | 1 kts | 153° |
| 2026-05-06 03:24 | 33.82368 | -116.50526 | 417 ft | 1 kts | 148° |
| 2026-05-06 03:25 | 33.82375 | -116.50531 | 415 ft | 1 kts | 145° |
| 2026-05-06 03:25 | 33.82378 | -116.50534 | 414 ft | 0 kts | 143° |
| 2026-05-06 03:32 | 33.82375 | -116.50531 | 415 ft | 4 kts | 143° |
| 2026-05-06 03:32 | 33.82309 | -116.50447 | 411 ft | 21 kts | 99° |
| 2026-05-06 03:32 | 33.82242 | -116.50325 | 413 ft | 19 kts | 144° |
| 2026-05-06 03:32 | 33.82125 | -116.50221 | 411 ft | 23 kts | 143° |
| 2026-05-06 03:33 | 33.81989 | -116.50100 | 413 ft | 25 kts | 143° |
| 2026-05-06 03:33 | 33.81864 | -116.49985 | 408 ft | 15 kts | 129° |
| 2026-05-06 03:33 | 33.81853 | -116.49912 | 406 ft | 0 kts | 90° |
| 2026-05-06 03:44 | 33.81853 | -116.49911 | 406 ft | 2 kts | 90° |
| 2026-05-06 03:44 | 33.81911 | -116.49831 | 405 ft | 19 kts | 342° |
| 2026-05-06 03:45 | 33.82060 | -116.49959 | 411 ft | 51 kts | 323° |
| 2026-05-06 03:45 | 33.82526 | -116.50372 | 420 ft | 112 kts | 323° |
| 2026-05-06 03:45 | 33.83262 | -116.51033 | 583 ft | 143 kts | 322° |
| 2026-05-06 03:45 | 33.84080 | -116.51787 | 1093 ft | 156 kts | 320° |
| 2026-05-06 03:46 | 33.84970 | -116.52610 | 1660 ft | 165 kts | 318° |
| 2026-05-06 03:46 | 33.85906 | -116.53472 | 2261 ft | 177 kts | 321° |
| 2026-05-06 03:46 | 33.86989 | -116.54385 | 2723 ft | 201 kts | 325° |
| 2026-05-06 03:46 | 33.88217 | -116.55392 | 3127 ft | 224 kts | 324° |
| 2026-05-06 03:47 | 33.89594 | -116.56377 | 3853 ft | 238 kts | 339° |
| 2026-05-06 03:47 | 33.91271 | -116.56550 | 4718 ft | 251 kts | 7° |
| 2026-05-06 03:47 | 33.92911 | -116.55645 | 5396 ft | 271 kts | 37° |
| 2026-05-06 03:47 | 33.94325 | -116.54129 | 6395 ft | 273 kts | 41° |
| 2026-05-06 03:48 | 33.95633 | -116.52474 | 7467 ft | 273 kts | 55° |
| 2026-05-06 03:48 | 33.96307 | -116.50353 | 8653 ft | 275 kts | 79° |
| 2026-05-06 03:48 | 33.96223 | -116.48031 | 9706 ft | 283 kts | 99° |
| 2026-05-06 03:48 | 33.95750 | -116.45710 | 10610 ft | 292 kts | 102° |
| 2026-05-06 03:49 | 33.95210 | -116.43224 | 10925 ft | 322 kts | 102° |
| 2026-05-06 03:49 | 33.94890 | -116.40463 | 11243 ft | 343 kts | 85° |
| 2026-05-06 03:49 | 33.95119 | -116.37577 | 12021 ft | 350 kts | 82° |
| 2026-05-06 03:49 | 33.95393 | -116.34645 | 12924 ft | 355 kts | 81° |
| 2026-05-06 03:50 | 33.95665 | -116.31670 | 13840 ft | 360 kts | 82° |
| 2026-05-06 03:50 | 33.95929 | -116.28653 | 14568 ft | 364 kts | 82° |
| 2026-05-06 03:50 | 33.96181 | -116.25644 | 14897 ft | 363 kts | 82° |
| 2026-05-06 03:50 | 33.96430 | -116.22606 | 14977 ft | 362 kts | 82° |
| 2026-05-06 03:51 | 33.96680 | -116.19535 | 15222 ft | 375 kts | 82° |
| 2026-05-06 03:51 | 33.96933 | -116.16402 | 16166 ft | 377 kts | 82° |
| 2026-05-06 03:51 | 33.97212 | -116.13254 | 17139 ft | 380 kts | 81° |
| 2026-05-06 03:51 | 33.97555 | -116.10076 | 17985 ft | 386 kts | 80° |
| 2026-05-06 03:52 | 33.97921 | -116.06854 | 18730 ft | 391 kts | 80° |
| 2026-05-06 03:52 | 33.98289 | -116.03596 | 19556 ft | 393 kts | 81° |
| 2026-05-06 03:52 | 33.98651 | -116.00327 | 20394 ft | 395 kts | 81° |
| 2026-05-06 03:52 | 33.99010 | -115.97032 | 21155 ft | 399 kts | 81° |
| 2026-05-06 03:53 | 33.99363 | -115.93751 | 21886 ft | 403 kts | 81° |
| 2026-05-06 03:53 | 33.99728 | -115.90393 | 22656 ft | 405 kts | 79° |
| 2026-05-06 03:53 | 34.00596 | -115.87171 | 23323 ft | 407 kts | 60° |
| 2026-05-06 03:53 | 34.02241 | -115.84401 | 23947 ft | 409 kts | 45° |
| 2026-05-06 03:54 | 34.04469 | -115.82269 | 24558 ft | 411 kts | 33° |
| 2026-05-06 03:54 | 34.06879 | -115.80397 | 25129 ft | 414 kts | 32° |
| 2026-05-06 03:54 | 34.09309 | -115.78506 | 25673 ft | 418 kts | 33° |
| 2026-05-06 03:54 | 34.11702 | -115.76496 | 26214 ft | 421 kts | 39° |
| 2026-05-06 03:55 | 34.13895 | -115.74137 | 26778 ft | 424 kts | 43° |
| 2026-05-06 03:55 | 34.16049 | -115.71685 | 27315 ft | 426 kts | 43° |
| 2026-05-06 03:55 | 34.18204 | -115.69210 | 27852 ft | 428 kts | 43° |
| 2026-05-06 03:55 | 34.20364 | -115.66742 | 28546 ft | 425 kts | 43° |
| 2026-05-06 03:56 | 34.22519 | -115.64299 | 28836 ft | 424 kts | 43° |
| 2026-05-06 03:56 | 34.24664 | -115.61880 | 28846 ft | 421 kts | 43° |
| 2026-05-06 03:56 | 34.28950 | -115.57057 | 28851 ft | 420 kts | 43° |
| 2026-05-06 03:57 | 34.33565 | -115.52786 | 28855 ft | 419 kts | 31° |
| 2026-05-06 03:57 | 34.38932 | -115.50077 | 28856 ft | 417 kts | 21° |
| 2026-05-06 03:58 | 34.44392 | -115.47775 | 28842 ft | 411 kts | 21° |
| 2026-05-06 03:58 | 34.47027 | -115.46657 | 28778 ft | 393 kts | 22° |
| 2026-05-06 03:58 | 34.49588 | -115.45559 | 27977 ft | 390 kts | 22° |
| 2026-05-06 03:59 | 34.52166 | -115.44440 | 26737 ft | 399 kts | 22° |
| 2026-05-06 03:59 | 34.54789 | -115.43294 | 25747 ft | 401 kts | 22° |
| 2026-05-06 03:59 | 34.57412 | -115.42149 | 24969 ft | 399 kts | 21° |
| 2026-05-06 03:59 | 34.60007 | -115.41015 | 24281 ft | 394 kts | 21° |
| 2026-05-06 04:00 | 34.62578 | -115.39891 | 23561 ft | 392 kts | 21° |
| 2026-05-06 04:00 | 34.65134 | -115.38773 | 22723 ft | 390 kts | 21° |
| 2026-05-06 04:00 | 34.67678 | -115.37659 | 21942 ft | 386 kts | 21° |
| 2026-05-06 04:00 | 34.70191 | -115.36559 | 21235 ft | 382 kts | 21° |
| 2026-05-06 04:01 | 34.72675 | -115.35471 | 20530 ft | 378 kts | 21° |
| 2026-05-06 04:01 | 34.75168 | -115.34493 | 19791 ft | 376 kts | 12° |
| 2026-05-06 04:01 | 34.77771 | -115.34451 | 19316 ft | 378 kts | 352° |
| 2026-05-06 04:01 | 34.80312 | -115.35330 | 18894 ft | 383 kts | 336° |
| 2026-05-06 04:02 | 34.82538 | -115.37053 | 18691 ft | 378 kts | 326° |
| 2026-05-06 04:02 | 34.84578 | -115.39071 | 18564 ft | 379 kts | 322° |
| 2026-05-06 04:02 | 34.86591 | -115.41164 | 18437 ft | 380 kts | 321° |
| 2026-05-06 04:02 | 34.88589 | -115.43260 | 18317 ft | 378 kts | 321° |
| 2026-05-06 04:03 | 34.90585 | -115.45341 | 18199 ft | 377 kts | 322° |
| 2026-05-06 04:03 | 34.92553 | -115.47377 | 18076 ft | 376 kts | 322° |
| 2026-05-06 04:03 | 34.94576 | -115.49454 | 17953 ft | 375 kts | 322° |
| 2026-05-06 04:03 | 34.96545 | -115.51467 | 17827 ft | 374 kts | 322° |
| 2026-05-06 04:04 | 34.98566 | -115.53530 | 17716 ft | 374 kts | 322° |
| 2026-05-06 04:04 | 35.00537 | -115.55540 | 17603 ft | 374 kts | 322° |
| 2026-05-06 04:04 | 35.02534 | -115.57577 | 17503 ft | 374 kts | 322° |
| 2026-05-06 04:04 | 35.04511 | -115.59596 | 17378 ft | 369 kts | 322° |
| 2026-05-06 04:05 | 35.06480 | -115.61607 | 17107 ft | 370 kts | 322° |
| 2026-05-06 04:05 | 35.08460 | -115.63629 | 16855 ft | 372 kts | 322° |
| 2026-05-06 04:05 | 35.10435 | -115.65650 | 16600 ft | 370 kts | 322° |
| 2026-05-06 04:05 | 35.12404 | -115.67665 | 16340 ft | 368 kts | 323° |
| 2026-05-06 04:06 | 35.14358 | -115.69667 | 16084 ft | 366 kts | 322° |
| 2026-05-06 04:06 | 35.16307 | -115.71664 | 15829 ft | 365 kts | 322° |
| 2026-05-06 04:06 | 35.18249 | -115.73655 | 15583 ft | 364 kts | 322° |
| 2026-05-06 04:06 | 35.20187 | -115.75639 | 15332 ft | 362 kts | 324° |
| 2026-05-06 04:07 | 35.22331 | -115.77186 | 15069 ft | 357 kts | 341° |
| 2026-05-06 04:07 | 35.24631 | -115.77879 | 14845 ft | 353 kts | 356° |
| 2026-05-06 04:07 | 35.27071 | -115.77834 | 14617 ft | 350 kts | 6° |
| 2026-05-06 04:07 | 35.29495 | -115.77560 | 14375 ft | 349 kts | 7° |
| 2026-05-06 04:08 | 35.31907 | -115.77252 | 14138 ft | 349 kts | 7° |
| 2026-05-06 04:08 | 35.34314 | -115.76948 | 13899 ft | 348 kts | 7° |
| 2026-05-06 04:08 | 35.36728 | -115.76657 | 13662 ft | 348 kts | 6° |
| 2026-05-06 04:08 | 35.39132 | -115.76377 | 13392 ft | 346 kts | 6° |
| 2026-05-06 04:09 | 35.41520 | -115.76108 | 13133 ft | 343 kts | 6° |
| 2026-05-06 04:09 | 35.43907 | -115.75842 | 13038 ft | 346 kts | 6° |
| 2026-05-06 04:09 | 35.46295 | -115.75578 | 13009 ft | 343 kts | 6° |
| 2026-05-06 04:09 | 35.48674 | -115.75316 | 13011 ft | 344 kts | 6° |
| 2026-05-06 04:10 | 35.51056 | -115.75054 | 13013 ft | 344 kts | 6° |
| 2026-05-06 04:10 | 35.53433 | -115.74792 | 13004 ft | 340 kts | 6° |
| 2026-05-06 04:10 | 35.55747 | -115.74537 | 12999 ft | 326 kts | 6° |
| 2026-05-06 04:10 | 35.57915 | -115.74155 | 12992 ft | 305 kts | 18° |
| 2026-05-06 04:11 | 35.59755 | -115.73055 | 13004 ft | 288 kts | 35° |
| 2026-05-06 04:11 | 35.61205 | -115.71419 | 13025 ft | 282 kts | 46° |
| 2026-05-06 04:11 | 35.62549 | -115.69611 | 13035 ft | 291 kts | 47° |
| 2026-05-06 04:11 | 35.63903 | -115.67739 | 13034 ft | 295 kts | 47° |
| 2026-05-06 04:12 | 35.65267 | -115.65857 | 13026 ft | 294 kts | 47° |
| 2026-05-06 04:12 | 35.66631 | -115.63988 | 13013 ft | 293 kts | 47° |
| 2026-05-06 04:12 | 35.67996 | -115.62130 | 13013 ft | 293 kts | 47° |
| 2026-05-06 04:12 | 35.69364 | -115.60276 | 13017 ft | 293 kts | 47° |
| 2026-05-06 04:13 | 35.70732 | -115.58423 | 13018 ft | 292 kts | 47° |
| 2026-05-06 04:13 | 35.72097 | -115.56573 | 13028 ft | 292 kts | 46° |
| 2026-05-06 04:13 | 35.73618 | -115.54943 | 13019 ft | 290 kts | 32° |
| 2026-05-06 04:13 | 35.75361 | -115.53690 | 13034 ft | 290 kts | 29° |
| 2026-05-06 04:14 | 35.77127 | -115.52487 | 13024 ft | 290 kts | 28° |
| 2026-05-06 04:14 | 35.78897 | -115.51281 | 13023 ft | 291 kts | 29° |
| 2026-05-06 04:14 | 35.80666 | -115.50065 | 13011 ft | 291 kts | 29° |
| 2026-05-06 04:14 | 35.82429 | -115.48842 | 13031 ft | 291 kts | 29° |
| 2026-05-06 04:15 | 35.84193 | -115.47611 | 13041 ft | 291 kts | 29° |
| 2026-05-06 04:15 | 35.85932 | -115.46394 | 13033 ft | 292 kts | 29° |
| 2026-05-06 04:15 | 35.87696 | -115.45156 | 13031 ft | 292 kts | 29° |
| 2026-05-06 04:15 | 35.89467 | -115.43913 | 13029 ft | 292 kts | 29° |
| 2026-05-06 04:16 | 35.91235 | -115.42671 | 12958 ft | 294 kts | 29° |
| 2026-05-06 04:16 | 35.93043 | -115.41409 | 12565 ft | 300 kts | 29° |
| 2026-05-06 04:16 | 35.94857 | -115.40144 | 12225 ft | 298 kts | 29° |
| 2026-05-06 04:16 | 35.96647 | -115.38896 | 11871 ft | 293 kts | 29° |
| 2026-05-06 04:17 | 35.98403 | -115.37670 | 11550 ft | 287 kts | 29° |
| 2026-05-06 04:17 | 36.00033 | -115.36293 | 11208 ft | 284 kts | 45° |
| 2026-05-06 04:17 | 36.01085 | -115.34269 | 10957 ft | 281 kts | 67° |
| 2026-05-06 04:17 | 36.01474 | -115.31908 | 10738 ft | 285 kts | 88° |
| 2026-05-06 04:18 | 36.01400 | -115.29441 | 10586 ft | 291 kts | 92° |
| 2026-05-06 04:18 | 36.01262 | -115.26926 | 10378 ft | 295 kts | 93° |
| 2026-05-06 04:18 | 36.01114 | -115.24393 | 10158 ft | 295 kts | 93° |
| 2026-05-06 04:18 | 36.00973 | -115.21905 | 9941 ft | 286 kts | 93° |
| 2026-05-06 04:19 | 36.00845 | -115.19497 | 9727 ft | 277 kts | 93° |
| 2026-05-06 04:19 | 36.00724 | -115.17146 | 9519 ft | 271 kts | 93° |
| 2026-05-06 04:19 | 36.00608 | -115.14862 | 9324 ft | 263 kts | 93° |
| 2026-05-06 04:19 | 36.00496 | -115.12639 | 9134 ft | 255 kts | 93° |
| 2026-05-06 04:20 | 36.00387 | -115.10479 | 8944 ft | 249 kts | 94° |
| 2026-05-06 04:20 | 36.00280 | -115.08366 | 8721 ft | 244 kts | 94° |
| 2026-05-06 04:20 | 36.00174 | -115.06292 | 8507 ft | 240 kts | 94° |
| 2026-05-06 04:20 | 36.00069 | -115.04248 | 8295 ft | 238 kts | 94° |
| 2026-05-06 04:21 | 35.99964 | -115.02198 | 8097 ft | 240 kts | 94° |
| 2026-05-06 04:21 | 35.99892 | -115.00117 | 7798 ft | 245 kts | 91° |
| 2026-05-06 04:21 | 35.99881 | -114.98010 | 7478 ft | 245 kts | 91° |
| 2026-05-06 04:21 | 35.99876 | -114.95901 | 7176 ft | 245 kts | 91° |
| 2026-05-06 04:22 | 35.99880 | -114.94507 | 6977 ft | 245 kts | 88° |
| 2026-05-06 04:22 | 36.00574 | -114.92097 | 6579 ft | 248 kts | 51° |
| 2026-05-06 04:22 | 36.01881 | -114.90730 | 6289 ft | 247 kts | 31° |
| 2026-05-06 04:23 | 36.05131 | -114.90537 | 5637 ft | 239 kts | 333° |
| 2026-05-06 04:23 | 36.06561 | -114.91546 | 5332 ft | 236 kts | 317° |
| 2026-05-06 04:23 | 36.07392 | -114.93197 | 5107 ft | 225 kts | 279° |
| 2026-05-06 04:23 | 36.07461 | -114.95100 | 4850 ft | 221 kts | 267° |
| 2026-05-06 04:24 | 36.07409 | -114.96976 | 4540 ft | 213 kts | 267° |
| 2026-05-06 04:24 | 36.07390 | -114.98755 | 4277 ft | 202 kts | 269° |
| 2026-05-06 04:24 | 36.07386 | -115.00455 | 4023 ft | 194 kts | 269° |
| 2026-05-06 04:24 | 36.07382 | -115.02104 | 3780 ft | 191 kts | 269° |
| 2026-05-06 04:25 | 36.07379 | -115.03690 | 3546 ft | 178 kts | 269° |
| 2026-05-06 04:25 | 36.07371 | -115.05167 | 3316 ft | 165 kts | 268° |
| 2026-05-06 04:25 | 36.07372 | -115.06087 | 3211 ft | 163 kts | 269° |
| 2026-05-06 04:25 | 36.07369 | -115.07447 | 3044 ft | 150 kts | 268° |
| 2026-05-06 04:26 | 36.07371 | -115.08691 | 2869 ft | 141 kts | 265° |
| 2026-05-06 04:26 | 36.07370 | -115.09903 | 2690 ft | 140 kts | 265° |
| 2026-05-06 04:26 | 36.07373 | -115.11484 | 2397 ft | 139 kts | 264° |
| 2026-05-06 04:26 | 36.07370 | -115.12300 | 2279 ft | 143 kts | 266° |
| 2026-05-06 04:27 | 36.07369 | -115.13473 | 2195 ft | 124 kts | 265° |
| 2026-05-06 04:27 | 36.07367 | -115.14404 | 2191 ft | 82 kts | 269° |
| 2026-05-06 04:27 | 36.07392 | -115.14864 | 2190 ft | 43 kts | 286° |
| 2026-05-06 04:27 | 36.07478 | -115.15070 | 2189 ft | 16 kts | 303° |
| 2026-05-06 04:28 | 36.07499 | -115.15100 | 2187 ft | 0 kts | 315° |
| 2026-05-06 04:28 | 36.07532 | -115.15132 | 2187 ft | 15 kts | 329° |
| 2026-05-06 04:28 | 36.07684 | -115.15222 | 2189 ft | 26 kts | 334° |
| 2026-05-06 04:29 | 36.07808 | -115.15296 | 2188 ft | 17 kts | 334° |
| 2026-05-06 04:29 | 36.07879 | -115.15232 | 2187 ft | 16 kts | 89° |
| 2026-05-06 04:29 | 36.07878 | -115.15090 | 2187 ft | 18 kts | 94° |
| 2026-05-06 04:29 | 36.07865 | -115.14906 | 2187 ft | 24 kts | 95° |
| 2026-05-06 04:30 | 36.07851 | -115.14700 | 2187 ft | 24 kts | 95° |
| 2026-05-06 04:30 | 36.07845 | -115.14522 | 2189 ft | 16 kts | 69° |
| 2026-05-06 04:30 | 36.07941 | -115.14484 | 2190 ft | 15 kts | 0° |
| 2026-05-06 04:30 | 36.08044 | -115.14484 | 2187 ft | 15 kts | 356° |
| 2026-05-06 04:31 | 36.08102 | -115.14532 | 2191 ft | 10 kts | 256° |
| 2026-05-06 04:31 | 36.08089 | -115.14593 | 2187 ft | 2 kts | 254° |
| 2026-05-06 04:31 | 36.08088 | -115.14597 | 2188 ft | 0 kts | 254° |